createdAt,value
2023-02-19T00:12:38.835Z,9.49
2023-02-19T00:27:40.403Z,9.48
2023-02-19T00:42:41.910Z,9.49
2023-02-19T00:57:43.422Z,9.47
2023-02-19T01:12:44.976Z,9.52
2023-02-19T01:27:46.556Z,9.46
2023-02-19T01:42:48.235Z,9.49
2023-02-19T01:57:52.745Z,9.47
2023-02-19T02:12:56.944Z,9.45
2023-02-19T02:27:58.486Z,9.45
2023-02-19T02:43:00.198Z,9.46
2023-02-19T02:58:02.107Z,9.49
2023-02-19T03:13:24.680Z,9.49
2023-02-19T03:28:47.194Z,9.51
2023-02-19T03:43:52.703Z,9.51
2023-02-19T03:59:05.434Z,9.48
2023-02-19T04:14:09.981Z,9.49
2023-02-19T05:02:18.357Z,9.38
2023-02-19T05:17:20.033Z,9.34
2023-02-19T05:32:21.657Z,9.39
2023-02-19T05:47:23.249Z,9.45
2023-02-19T06:02:24.786Z,9.60
2023-02-19T06:17:26.360Z,9.65
2023-02-19T06:32:27.980Z,9.71
2023-02-19T06:47:33.070Z,9.76
2023-02-19T07:02:34.648Z,9.83
2023-02-19T07:17:36.139Z,9.89
2023-02-19T07:32:40.846Z,9.92
2023-02-19T07:47:42.397Z,10.00
2023-02-19T08:03:02.277Z,10.04
2023-02-19T08:18:03.944Z,10.13
2023-02-19T08:33:06.773Z,10.17
2023-02-19T08:48:08.767Z,10.20
2023-02-19T09:03:10.753Z,10.21
2023-02-19T09:18:12.344Z,10.26
2023-02-19T09:33:13.871Z,10.23
2023-02-19T09:48:15.595Z,10.37
2023-02-19T10:03:39.321Z,10.40
2023-02-19T10:18:42.458Z,10.50
2023-02-19T10:33:52.976Z,10.54
2023-02-19T10:49:02.681Z,10.61
2023-02-19T11:04:17.430Z,10.66
2023-02-19T11:19:37.820Z,10.70
2023-02-19T11:34:39.570Z,10.73
2023-02-19T11:49:47.117Z,10.79
2023-02-19T12:05:00.890Z,10.75
2023-02-19T12:20:02.494Z,10.82
2023-02-19T12:35:13.205Z,10.89
2023-02-19T12:50:14.683Z,10.95
2023-02-19T13:05:22.563Z,10.98
2023-02-19T13:20:27.551Z,11.03
2023-02-19T14:07:48.605Z,11.08
2023-02-19T14:22:58.343Z,11.09
2023-02-19T14:38:00.272Z,11.08
2023-02-19T14:53:04.571Z,11.02
2023-02-19T15:08:12.202Z,11.07
2023-02-19T15:23:18.782Z,11.07
2023-02-19T15:38:20.676Z,11.02
2023-02-19T15:53:24.669Z,11.03
2023-02-19T16:08:34.399Z,11.00
2023-02-19T16:23:36.518Z,10.97
2023-02-19T16:38:38.120Z,10.99
2023-02-19T16:53:39.700Z,10.98
2023-02-19T17:08:42.442Z,10.98
2023-02-19T17:23:43.983Z,10.96
2023-02-19T17:38:45.669Z,11.00
2023-02-19T17:53:47.230Z,10.98
2023-02-19T18:08:50.155Z,10.97
2023-02-19T18:23:51.639Z,10.96
2023-02-19T18:38:53.228Z,10.93
2023-02-19T18:53:54.834Z,10.93
2023-02-19T19:08:58.384Z,10.90
2023-02-19T19:24:00.124Z,10.88
2023-02-19T19:39:01.860Z,10.87
2023-02-19T19:54:04.396Z,10.85
2023-02-19T20:09:05.999Z,10.80
2023-02-19T20:24:07.676Z,10.80
2023-02-19T20:39:09.282Z,10.80
2023-02-19T20:54:10.848Z,10.79
2023-02-19T21:09:12.440Z,10.80
2023-02-19T21:24:14.789Z,10.77
2023-02-19T21:39:17.639Z,10.74
2023-02-19T21:54:24.840Z,10.73
2023-02-19T22:09:26.501Z,10.70
2023-02-19T22:24:28.117Z,10.70
2023-02-19T22:39:29.653Z,10.67
2023-02-19T22:54:31.238Z,10.65
2023-02-19T23:09:32.780Z,10.67
2023-02-19T23:24:34.256Z,10.65
2023-02-19T23:39:36.128Z,10.63
2023-02-19T23:54:37.716Z,10.61
